NCAR-RAP Real-Time Weather Data

Output produced by METARs form (08 May 2021  02:12 UTC)
found at http://weather.rap.ucar.edu/surface/
 
KBIV 080153Z AUTO 34007KT 10SM CLR 06/01 A3003 RMK AO2 SLP172 T00560006
KBIV 080053Z AUTO 33009KT 10SM CLR 06/01 A3001 RMK AO2 SLP168 T00560006
KBIV 072353Z AUTO 32010G22KT 10SM CLR 07/01 A3000 RMK AO2 SLP165 T00670011 10106 20067 51003
KBIV 072253Z AUTO 31014G21KT 10SM FEW015 07/02 A3000 RMK AO2 PK WND 31026/2238 SLP164 T00720017
KBIV 072153Z AUTO 32013G20KT 10SM FEW018 08/02 A3000 RMK AO2 PK WND 30026/2055 SLP163 T00780022
KBIV 072053Z AUTO 32015G26KT 10SM SCT023 SCT029 09/02 A2999 RMK AO2 PK WND 33028/2036 SLP161 T00890017 53004
KBIV 072006Z AUTO 32011G28KT 290V010 10SM BKN027 10/02 A2999 RMK AO2 PK WND 30028/1958 T01000022
KBIV 071953Z AUTO 33013G26KT 10SM SCT030 09/01 A2998 RMK AO2 PK WND 34028/1858 SLP159 T00940011
KBIV 071853Z AUTO 32014G27KT 290V350 10SM FEW030 10/01 A2998 RMK AO2 PK WND 33027/1845 SLP156 T01000006
KBIV 071806Z AUTO 33014G23KT 10SM SCT021 09/03 A2998 RMK AO2 T00940028
KBIV 071753Z AUTO 33012G19KT 10SM BKN021 09/03 A2998 RMK AO2 SLP157 60000 T00940033 10106 20022 51006
KBIV 071653Z AUTO 31012G21KT 10SM BKN018 10/04 A2998 RMK AO2 SLP155 T01000039
KBIV 071649Z AUTO 31012G20KT 10SM BKN018 10/04 A2997 RMK AO2
KBIV 071553Z AUTO 32011G21KT 10SM FEW021 09/04 A2996 RMK AO2 SLP150 T00940039
KBIV 071453Z AUTO 27008KT 10SM BKN050 OVC060 10/04 A2995 RMK AO2 RAB1357E09 SLP148 P0000 60000 T01000044 58004
KBIV 071353Z AUTO 28003KT 10SM FEW060 BKN070 OVC085 08/04 A2996 RMK AO2 SLP149 T00780039
KBIV 071253Z AUTO 19004KT 10SM FEW047 SCT065 OVC080 04/03 A2997 RMK AO2 RAB30E38 SLP154 P0000 T00440028
KBIV 071153Z AUTO 18005KT 8SM FEW002 SCT110 02/01 A2997 RMK AO2 SLP153 70035 I6000 T00220006 10022 20000 55006
KBIV 071142Z AUTO 19004KT 5SM BR FEW002 01/00 A2996 RMK AO2 T00110000
KBIV 071053Z AUTO 00000KT 6SM BR CLR 01/M01 A2996 RMK AO2 SLP151 T00111006